Aviation Digital Data Service (ADDS)

Output produced by METARs form (1257 UTC 21 February 2018)
found at http://www.aviationweather.gov/adds/metars/
 
TAF DBBB 201100Z 2012/2118 22010KT 9999 SCT012 
     TEMPO 2013/2018 3000 TSRA BKN012 FEW023CB 
     PROB40 08015G25KT 
     PROB30 
     TEMPO 2105/2109 VRB02KT 4000 BR